sensor_id;sensor_type;location;lat;lon;timestamp;P1;durP1;ratioP1;P2;durP2;ratioP2
42338;SDS011;27993;45.392;10.918;2023-03-24T00:02:01;32.42;;;15.50;;
42338;SDS011;27993;45.392;10.918;2023-03-24T00:04:32;26.00;;;14.20;;
42338;SDS011;27993;45.392;10.918;2023-03-24T00:07:04;25.92;;;14.48;;
42338;SDS011;27993;45.392;10.918;2023-03-24T00:09:35;33.47;;;14.37;;
42338;SDS011;27993;45.392;10.918;2023-03-24T00:12:07;31.90;;;15.13;;
42338;SDS011;27993;45.392;10.918;2023-03-24T00:14:39;27.60;;;14.85;;
42338;SDS011;27993;45.392;10.918;2023-03-24T00:17:10;30.05;;;15.82;;
42338;SDS011;27993;45.392;10.918;2023-03-24T00:19:46;34.05;;;15.20;;
42338;SDS011;27993;45.392;10.918;2023-03-24T00:22:17;33.20;;;15.13;;
42338;SDS011;27993;45.392;10.918;2023-03-24T00:24:50;24.08;;;13.45;;
42338;SDS011;27993;45.392;10.918;2023-03-24T00:27:20;38.57;;;15.57;;
42338;SDS011;27993;45.392;10.918;2023-03-24T00:29:51;27.07;;;15.60;;
42338;SDS011;27993;45.392;10.918;2023-03-24T00:32:22;30.33;;;17.67;;
42338;SDS011;27993;45.392;10.918;2023-03-24T00:34:52;33.73;;;19.33;;
42338;SDS011;27993;45.392;10.918;2023-03-24T00:37:23;37.93;;;21.30;;
42338;SDS011;27993;45.392;10.918;2023-03-24T00:39:56;39.75;;;21.90;;
42338;SDS011;27993;45.392;10.918;2023-03-24T00:42:29;48.38;;;22.85;;
42338;SDS011;27993;45.392;10.918;2023-03-24T00:45:03;44.22;;;22.17;;
42338;SDS011;27993;45.392;10.918;2023-03-24T00:47:35;35.72;;;24.30;;
42338;SDS011;27993;45.392;10.918;2023-03-24T00:50:08;46.20;;;25.58;;
42338;SDS011;27993;45.392;10.918;2023-03-24T00:52:46;46.17;;;26.15;;
42338;SDS011;27993;45.392;10.918;2023-03-24T00:57:53;48.17;;;26.40;;
42338;SDS011;27993;45.392;10.918;2023-03-24T01:00:24;57.20;;;25.98;;
42338;SDS011;27993;45.392;10.918;2023-03-24T01:02:56;50.30;;;29.77;;
42338;SDS011;27993;45.392;10.918;2023-03-24T01:07:59;76.62;;;37.45;;
42338;SDS011;27993;45.392;10.918;2023-03-24T01:10:34;98.60;;;38.50;;
42338;SDS011;27993;45.392;10.918;2023-03-24T01:13:20;70.22;;;36.20;;
42338;SDS011;27993;45.392;10.918;2023-03-24T01:15:53;79.07;;;37.38;;
42338;SDS011;27993;45.392;10.918;2023-03-24T01:18:25;68.85;;;33.67;;
42338;SDS011;27993;45.392;10.918;2023-03-24T01:20:56;72.00;;;32.72;;
42338;SDS011;27993;45.392;10.918;2023-03-24T01:23:27;61.90;;;31.07;;
42338;SDS011;27993;45.392;10.918;2023-03-24T01:26:03;53.45;;;29.45;;
42338;SDS011;27993;45.392;10.918;2023-03-24T01:28:36;56.78;;;28.52;;
42338;SDS011;27993;45.392;10.918;2023-03-24T01:31:10;58.97;;;29.17;;
42338;SDS011;27993;45.392;10.918;2023-03-24T01:33:41;44.08;;;26.25;;
42338;SDS011;27993;45.392;10.918;2023-03-24T01:36:11;46.87;;;25.50;;
42338;SDS011;27993;45.392;10.918;2023-03-24T01:38:42;50.37;;;28.27;;
42338;SDS011;27993;45.392;10.918;2023-03-24T01:41:13;44.47;;;24.17;;
42338;SDS011;27993;45.392;10.918;2023-03-24T01:43:43;47.17;;;24.77;;
42338;SDS011;27993;45.392;10.918;2023-03-24T01:46:18;48.27;;;25.80;;
42338;SDS011;27993;45.392;10.918;2023-03-24T01:51:34;44.83;;;24.95;;
42338;SDS011;27993;45.392;10.918;2023-03-24T01:54:10;37.67;;;21.73;;
42338;SDS011;27993;45.392;10.918;2023-03-24T01:56:48;53.03;;;23.15;;
42338;SDS011;27993;45.392;10.918;2023-03-24T01:59:24;39.53;;;21.30;;
42338;SDS011;27993;45.392;10.918;2023-03-24T02:01:57;47.33;;;24.92;;
42338;SDS011;27993;45.392;10.918;2023-03-24T02:04:33;56.47;;;27.67;;
42338;SDS011;27993;45.392;10.918;2023-03-24T02:07:12;57.10;;;24.33;;
42338;SDS011;27993;45.392;10.918;2023-03-24T02:09:49;47.13;;;24.87;;
42338;SDS011;27993;45.392;10.918;2023-03-24T02:12:19;61.33;;;25.47;;
42338;SDS011;27993;45.392;10.918;2023-03-24T02:14:50;50.70;;;27.13;;
42338;SDS011;27993;45.392;10.918;2023-03-24T02:17:26;41.93;;;23.57;;
42338;SDS011;27993;45.392;10.918;2023-03-24T02:32:52;41.53;;;23.98;;
42338;SDS011;27993;45.392;10.918;2023-03-24T02:38:14;42.88;;;23.35;;
42338;SDS011;27993;45.392;10.918;2023-03-24T02:43:52;45.95;;;23.15;;
42338;SDS011;27993;45.392;10.918;2023-03-24T02:47:05;39.95;;;23.30;;
42338;SDS011;27993;45.392;10.918;2023-03-24T02:49:53;45.72;;;24.12;;
42338;SDS011;27993;45.392;10.918;2023-03-24T02:52:45;37.58;;;22.25;;
42338;SDS011;27993;45.392;10.918;2023-03-24T02:55:30;40.08;;;22.90;;
42338;SDS011;27993;45.392;10.918;2023-03-24T02:58:11;38.60;;;20.97;;
42338;SDS011;27993;45.392;10.918;2023-03-24T03:00:49;48.60;;;22.52;;
42338;SDS011;27993;45.392;10.918;2023-03-24T03:03:33;40.38;;;21.92;;
42338;SDS011;27993;45.392;10.918;2023-03-24T03:08:48;39.88;;;22.08;;
42338;SDS011;27993;45.392;10.918;2023-03-24T03:11:20;61.88;;;21.35;;
42338;SDS011;27993;45.392;10.918;2023-03-24T03:13:51;58.63;;;22.92;;
42338;SDS011;27993;45.392;10.918;2023-03-24T03:16:26;58.67;;;24.50;;
42338;SDS011;27993;45.392;10.918;2023-03-24T03:19:23;47.20;;;22.10;;
42338;SDS011;27993;45.392;10.918;2023-03-24T03:22:03;61.43;;;22.63;;
42338;SDS011;27993;45.392;10.918;2023-03-24T03:24:39;53.78;;;20.50;;
42338;SDS011;27993;45.392;10.918;2023-03-24T03:27:15;48.70;;;21.62;;
42338;SDS011;27993;45.392;10.918;2023-03-24T03:29:49;40.70;;;20.62;;
42338;SDS011;27993;45.392;10.918;2023-03-24T03:32:34;63.50;;;24.42;;
42338;SDS011;27993;45.392;10.918;2023-03-24T03:35:13;47.70;;;22.15;;
42338;SDS011;27993;45.392;10.918;2023-03-24T03:38:01;50.88;;;21.27;;
42338;SDS011;27993;45.392;10.918;2023-03-24T03:40:50;49.03;;;19.98;;
42338;SDS011;27993;45.392;10.918;2023-03-24T03:43:25;41.75;;;19.58;;
42338;SDS011;27993;45.392;10.918;2023-03-24T03:45:57;45.28;;;19.33;;
42338;SDS011;27993;45.392;10.918;2023-03-24T03:48:29;34.65;;;15.57;;
42338;SDS011;27993;45.392;10.918;2023-03-24T03:51:00;31.02;;;17.02;;
42338;SDS011;27993;45.392;10.918;2023-03-24T03:53:43;34.60;;;16.87;;
42338;SDS011;27993;45.392;10.918;2023-03-24T03:56:22;34.20;;;18.27;;
42338;SDS011;27993;45.392;10.918;2023-03-24T03:58:55;36.63;;;16.73;;
42338;SDS011;27993;45.392;10.918;2023-03-24T04:10:11;31.87;;;17.00;;
42338;SDS011;27993;45.392;10.918;2023-03-24T04:16:08;38.55;;;18.25;;
42338;SDS011;27993;45.392;10.918;2023-03-24T04:18:52;27.05;;;17.92;;
42338;SDS011;27993;45.392;10.918;2023-03-24T04:25:04;39.80;;;21.90;;
42338;SDS011;27993;45.392;10.918;2023-03-24T04:27:47;49.33;;;20.55;;
42338;SDS011;27993;45.392;10.918;2023-03-24T04:35:59;35.70;;;20.17;;
42338;SDS011;27993;45.392;10.918;2023-03-24T04:38:35;41.83;;;19.92;;
42338;SDS011;27993;45.392;10.918;2023-03-24T04:43:38;33.83;;;18.97;;
42338;SDS011;27993;45.392;10.918;2023-03-24T04:46:09;32.37;;;18.57;;
42338;SDS011;27993;45.392;10.918;2023-03-24T04:48:40;39.60;;;20.10;;
42338;SDS011;27993;45.392;10.918;2023-03-24T04:51:13;47.05;;;20.73;;
42338;SDS011;27993;45.392;10.918;2023-03-24T04:53:46;45.08;;;20.73;;
42338;SDS011;27993;45.392;10.918;2023-03-24T04:58:47;31.63;;;19.87;;
42338;SDS011;27993;45.392;10.918;2023-03-24T05:01:18;36.23;;;18.57;;
42338;SDS011;27993;45.392;10.918;2023-03-24T05:03:51;33.55;;;17.55;;
42338;SDS011;27993;45.392;10.918;2023-03-24T05:06:22;32.13;;;19.00;;
42338;SDS011;27993;45.392;10.918;2023-03-24T05:08:53;37.20;;;20.43;;
42338;SDS011;27993;45.392;10.918;2023-03-24T05:11:25;38.28;;;19.15;;
42338;SDS011;27993;45.392;10.918;2023-03-24T05:13:56;43.40;;;20.27;;
42338;SDS011;27993;45.392;10.918;2023-03-24T05:16:27;31.30;;;19.07;;
42338;SDS011;27993;45.392;10.918;2023-03-24T05:18:57;42.70;;;19.60;;
42338;SDS011;27993;45.392;10.918;2023-03-24T05:21:28;34.63;;;19.97;;
42338;SDS011;27993;45.392;10.918;2023-03-24T05:24:00;41.42;;;18.20;;
42338;SDS011;27993;45.392;10.918;2023-03-24T05:26:31;34.53;;;18.93;;
42338;SDS011;27993;45.392;10.918;2023-03-24T05:29:01;30.73;;;19.70;;
42338;SDS011;27993;45.392;10.918;2023-03-24T05:31:32;36.17;;;17.63;;
42338;SDS011;27993;45.392;10.918;2023-03-24T05:34:03;34.70;;;19.77;;
42338;SDS011;27993;45.392;10.918;2023-03-24T05:36:33;38.03;;;17.57;;
42338;SDS011;27993;45.392;10.918;2023-03-24T05:39:04;35.63;;;20.77;;
42338;SDS011;27993;45.392;10.918;2023-03-24T05:41:34;37.63;;;18.63;;
42338;SDS011;27993;45.392;10.918;2023-03-24T05:44:05;33.77;;;18.73;;
42338;SDS011;27993;45.392;10.918;2023-03-24T05:46:36;35.57;;;18.77;;
42338;SDS011;27993;45.392;10.918;2023-03-24T05:49:07;35.05;;;18.58;;
42338;SDS011;27993;45.392;10.918;2023-03-24T05:51:37;30.10;;;18.27;;
42338;SDS011;27993;45.392;10.918;2023-03-24T05:54:08;36.80;;;20.27;;
42338;SDS011;27993;45.392;10.918;2023-03-24T05:56:38;51.10;;;20.97;;
42338;SDS011;27993;45.392;10.918;2023-03-24T05:59:09;34.10;;;19.47;;
42338;SDS011;27993;45.392;10.918;2023-03-24T06:01:40;38.35;;;20.27;;
42338;SDS011;27993;45.392;10.918;2023-03-24T06:04:11;34.53;;;19.43;;
42338;SDS011;27993;45.392;10.918;2023-03-24T06:06:42;32.92;;;18.20;;
42338;SDS011;27993;45.392;10.918;2023-03-24T06:09:14;38.20;;;20.42;;
42338;SDS011;27993;45.392;10.918;2023-03-24T06:11:48;37.60;;;18.52;;
42338;SDS011;27993;45.392;10.918;2023-03-24T06:14:19;38.50;;;19.43;;
42338;SDS011;27993;45.392;10.918;2023-03-24T06:16:49;41.20;;;21.43;;
42338;SDS011;27993;45.392;10.918;2023-03-24T06:19:20;57.43;;;26.10;;
42338;SDS011;27993;45.392;10.918;2023-03-24T06:21:52;56.67;;;31.33;;
42338;SDS011;27993;45.392;10.918;2023-03-24T06:24:23;63.53;;;31.25;;
42338;SDS011;27993;45.392;10.918;2023-03-24T06:26:53;52.70;;;30.43;;
42338;SDS011;27993;45.392;10.918;2023-03-24T06:29:31;54.85;;;28.60;;
42338;SDS011;27993;45.392;10.918;2023-03-24T06:32:01;57.13;;;27.13;;
42338;SDS011;27993;45.392;10.918;2023-03-24T06:34:34;60.30;;;29.67;;
42338;SDS011;27993;45.392;10.918;2023-03-24T06:37:09;51.95;;;30.08;;
42338;SDS011;27993;45.392;10.918;2023-03-24T06:39:43;65.70;;;31.62;;
42338;SDS011;27993;45.392;10.918;2023-03-24T06:42:14;51.80;;;30.08;;
42338;SDS011;27993;45.392;10.918;2023-03-24T06:44:46;61.20;;;31.40;;
42338;SDS011;27993;45.392;10.918;2023-03-24T06:47:17;65.07;;;33.53;;
42338;SDS011;27993;45.392;10.918;2023-03-24T06:49:47;46.85;;;33.67;;
42338;SDS011;27993;45.392;10.918;2023-03-24T06:52:18;59.30;;;34.23;;
42338;SDS011;27993;45.392;10.918;2023-03-24T06:54:49;58.05;;;34.15;;
42338;SDS011;27993;45.392;10.918;2023-03-24T06:57:19;68.05;;;36.30;;
42338;SDS011;27993;45.392;10.918;2023-03-24T06:59:50;64.82;;;37.13;;
42338;SDS011;27993;45.392;10.918;2023-03-24T07:02:21;49.25;;;36.45;;
42338;SDS011;27993;45.392;10.918;2023-03-24T07:04:52;49.05;;;33.92;;
42338;SDS011;27993;45.392;10.918;2023-03-24T07:07:23;46.33;;;32.10;;
42338;SDS011;27993;45.392;10.918;2023-03-24T07:09:53;46.60;;;32.72;;
42338;SDS011;27993;45.392;10.918;2023-03-24T07:12:24;57.58;;;33.00;;
42338;SDS011;27993;45.392;10.918;2023-03-24T07:17:25;44.27;;;34.23;;
42338;SDS011;27993;45.392;10.918;2023-03-24T07:22:26;53.90;;;36.20;;
42338;SDS011;27993;45.392;10.918;2023-03-24T07:27:30;49.47;;;35.83;;
42338;SDS011;27993;45.392;10.918;2023-03-24T07:30:04;53.70;;;38.17;;
42338;SDS011;27993;45.392;10.918;2023-03-24T07:32:36;51.20;;;37.50;;
42338;SDS011;27993;45.392;10.918;2023-03-24T07:35:09;53.55;;;37.00;;
42338;SDS011;27993;45.392;10.918;2023-03-24T07:37:41;50.03;;;38.85;;
42338;SDS011;27993;45.392;10.918;2023-03-24T07:40:12;50.75;;;39.97;;
42338;SDS011;27993;45.392;10.918;2023-03-24T07:42:45;59.53;;;39.40;;
42338;SDS011;27993;45.392;10.918;2023-03-24T07:45:16;55.30;;;39.20;;
42338;SDS011;27993;45.392;10.918;2023-03-24T07:47:47;55.60;;;36.70;;
42338;SDS011;27993;45.392;10.918;2023-03-24T07:50:17;59.70;;;39.45;;
42338;SDS011;27993;45.392;10.918;2023-03-24T07:52:48;51.42;;;37.70;;
42338;SDS011;27993;45.392;10.918;2023-03-24T07:55:20;60.42;;;37.50;;
42338;SDS011;27993;45.392;10.918;2023-03-24T07:57:50;62.67;;;41.15;;
42338;SDS011;27993;45.392;10.918;2023-03-24T08:00:21;68.57;;;40.90;;
42338;SDS011;27993;45.392;10.918;2023-03-24T08:02:53;62.33;;;42.05;;
42338;SDS011;27993;45.392;10.918;2023-03-24T08:05:24;67.62;;;40.25;;
42338;SDS011;27993;45.392;10.918;2023-03-24T08:07:58;61.22;;;41.70;;
42338;SDS011;27993;45.392;10.918;2023-03-24T08:10:29;68.60;;;41.78;;
42338;SDS011;27993;45.392;10.918;2023-03-24T08:13:00;73.97;;;42.78;;
42338;SDS011;27993;45.392;10.918;2023-03-24T08:15:31;77.82;;;46.95;;
42338;SDS011;27993;45.392;10.918;2023-03-24T08:18:02;72.93;;;46.58;;
42338;SDS011;27993;45.392;10.918;2023-03-24T08:20:32;76.75;;;47.47;;
42338;SDS011;27993;45.392;10.918;2023-03-24T08:23:06;79.15;;;49.10;;
42338;SDS011;27993;45.392;10.918;2023-03-24T08:25:40;79.25;;;51.15;;
42338;SDS011;27993;45.392;10.918;2023-03-24T08:28:10;73.30;;;48.53;;
42338;SDS011;27993;45.392;10.918;2023-03-24T08:30:41;84.20;;;48.67;;
42338;SDS011;27993;45.392;10.918;2023-03-24T08:33:13;71.47;;;47.62;;
42338;SDS011;27993;45.392;10.918;2023-03-24T08:35:45;79.28;;;49.08;;
42338;SDS011;27993;45.392;10.918;2023-03-24T08:38:15;72.37;;;48.92;;
42338;SDS011;27993;45.392;10.918;2023-03-24T08:40:46;76.22;;;47.17;;
42338;SDS011;27993;45.392;10.918;2023-03-24T08:43:20;63.22;;;43.53;;
42338;SDS011;27993;45.392;10.918;2023-03-24T08:45:52;72.47;;;45.78;;
42338;SDS011;27993;45.392;10.918;2023-03-24T08:48:22;62.40;;;40.83;;
42338;SDS011;27993;45.392;10.918;2023-03-24T08:50:53;60.80;;;39.63;;
42338;SDS011;27993;45.392;10.918;2023-03-24T08:53:25;73.30;;;40.58;;
42338;SDS011;27993;45.392;10.918;2023-03-24T08:55:55;73.03;;;36.20;;
42338;SDS011;27993;45.392;10.918;2023-03-24T08:58:26;62.25;;;36.60;;
42338;SDS011;27993;45.392;10.918;2023-03-24T09:00:56;52.53;;;33.25;;
42338;SDS011;27993;45.392;10.918;2023-03-24T09:03:28;54.17;;;31.30;;
42338;SDS011;27993;45.392;10.918;2023-03-24T09:05:59;48.05;;;29.50;;
42338;SDS011;27993;45.392;10.918;2023-03-24T09:08:30;48.78;;;31.17;;
42338;SDS011;27993;45.392;10.918;2023-03-24T09:11:01;32.63;;;24.42;;
42338;SDS011;27993;45.392;10.918;2023-03-24T09:13:31;36.10;;;24.27;;
42338;SDS011;27993;45.392;10.918;2023-03-24T09:16:02;44.65;;;24.50;;
42338;SDS011;27993;45.392;10.918;2023-03-24T09:18:33;38.97;;;24.05;;
42338;SDS011;27993;45.392;10.918;2023-03-24T09:23:35;41.05;;;23.20;;
42338;SDS011;27993;45.392;10.918;2023-03-24T09:26:06;52.80;;;25.60;;
42338;SDS011;27993;45.392;10.918;2023-03-24T09:28:37;31.58;;;24.65;;
42338;SDS011;27993;45.392;10.918;2023-03-24T09:31:10;36.15;;;24.08;;
42338;SDS011;27993;45.392;10.918;2023-03-24T09:33:41;28.20;;;19.27;;
42338;SDS011;27993;45.392;10.918;2023-03-24T09:36:11;24.05;;;15.07;;
42338;SDS011;27993;45.392;10.918;2023-03-24T09:38:42;19.05;;;13.45;;
42338;SDS011;27993;45.392;10.918;2023-03-24T09:41:14;19.23;;;14.23;;
42338;SDS011;27993;45.392;10.918;2023-03-24T09:49:21;16.00;;;9.52;;
42338;SDS011;27993;45.392;10.918;2023-03-24T09:52:04;14.30;;;5.25;;
42338;SDS011;27993;45.392;10.918;2023-03-24T09:54:47;6.45;;;3.45;;
42338;SDS011;27993;45.392;10.918;2023-03-24T09:57:33;10.20;;;3.72;;
42338;SDS011;27993;45.392;10.918;2023-03-24T10:02:52;5.72;;;3.17;;
42338;SDS011;27993;45.392;10.918;2023-03-24T10:05:34;6.57;;;3.42;;
42338;SDS011;27993;45.392;10.918;2023-03-24T10:08:13;5.62;;;3.47;;
42338;SDS011;27993;45.392;10.918;2023-03-24T10:10:52;6.50;;;3.90;;
42338;SDS011;27993;45.392;10.918;2023-03-24T10:13:53;6.37;;;3.53;;
42338;SDS011;27993;45.392;10.918;2023-03-24T10:21:54;11.93;;;4.63;;
42338;SDS011;27993;45.392;10.918;2023-03-24T10:24:35;4.70;;;2.72;;
42338;SDS011;27993;45.392;10.918;2023-03-24T10:27:28;6.68;;;2.90;;
42338;SDS011;27993;45.392;10.918;2023-03-24T10:33:11;6.87;;;3.35;;
42338;SDS011;27993;45.392;10.918;2023-03-24T10:38:21;11.02;;;3.08;;
42338;SDS011;27993;45.392;10.918;2023-03-24T10:40:52;7.55;;;4.15;;
42338;SDS011;27993;45.392;10.918;2023-03-24T10:43:24;8.05;;;3.12;;
42338;SDS011;27993;45.392;10.918;2023-03-24T10:45:56;2.70;;;2.10;;
42338;SDS011;27993;45.392;10.918;2023-03-24T10:48:35;8.70;;;3.50;;
42338;SDS011;27993;45.392;10.918;2023-03-24T10:51:19;3.62;;;2.72;;
42338;SDS011;27993;45.392;10.918;2023-03-24T10:54:09;3.40;;;2.93;;
42338;SDS011;27993;45.392;10.918;2023-03-24T11:02:24;2.80;;;2.50;;
42338;SDS011;27993;45.392;10.918;2023-03-24T11:05:00;4.55;;;2.72;;
42338;SDS011;27993;45.392;10.918;2023-03-24T11:10:14;5.97;;;3.22;;
42338;SDS011;27993;45.392;10.918;2023-03-24T11:15:28;6.25;;;2.78;;
42338;SDS011;27993;45.392;10.918;2023-03-24T11:20:44;5.55;;;3.33;;
42338;SDS011;27993;45.392;10.918;2023-03-24T11:23:23;4.95;;;3.12;;
42338;SDS011;27993;45.392;10.918;2023-03-24T11:28:37;7.25;;;4.15;;
42338;SDS011;27993;45.392;10.918;2023-03-24T11:31:20;8.65;;;4.18;;
42338;SDS011;27993;45.392;10.918;2023-03-24T11:34:05;7.05;;;3.30;;
42338;SDS011;27993;45.392;10.918;2023-03-24T11:39:23;8.73;;;3.40;;
42338;SDS011;27993;45.392;10.918;2023-03-24T11:44:48;4.65;;;3.35;;
42338;SDS011;27993;45.392;10.918;2023-03-24T11:47:30;8.02;;;3.42;;
42338;SDS011;27993;45.392;10.918;2023-03-24T11:58:11;7.55;;;4.15;;
42338;SDS011;27993;45.392;10.918;2023-03-24T12:09:38;6.90;;;3.78;;
42338;SDS011;27993;45.392;10.918;2023-03-24T12:17:42;10.48;;;5.07;;
42338;SDS011;27993;45.392;10.918;2023-03-24T12:20:29;5.47;;;4.80;;
42338;SDS011;27993;45.392;10.918;2023-03-24T12:23:36;9.60;;;4.75;;
42338;SDS011;27993;45.392;10.918;2023-03-24T12:26:22;5.43;;;4.43;;
42338;SDS011;27993;45.392;10.918;2023-03-24T12:46:03;7.55;;;4.80;;
42338;SDS011;27993;45.392;10.918;2023-03-24T12:49:09;11.27;;;5.10;;
42338;SDS011;27993;45.392;10.918;2023-03-24T12:55:06;15.10;;;5.18;;
42338;SDS011;27993;45.392;10.918;2023-03-24T13:00:59;8.60;;;6.03;;
42338;SDS011;27993;45.392;10.918;2023-03-24T13:03:37;7.10;;;5.35;;
42338;SDS011;27993;45.392;10.918;2023-03-24T13:08:52;6.65;;;5.22;;
42338;SDS011;27993;45.392;10.918;2023-03-24T13:15:17;11.88;;;5.80;;
42338;SDS011;27993;45.392;10.918;2023-03-24T13:17:27;11.12;;;6.37;;
42338;SDS011;27993;45.392;10.918;2023-03-24T13:20:05;11.02;;;5.72;;
42338;SDS011;27993;45.392;10.918;2023-03-24T13:22:42;10.50;;;6.72;;
42338;SDS011;27993;45.392;10.918;2023-03-24T13:26:00;9.65;;;6.18;;
42338;SDS011;27993;45.392;10.918;2023-03-24T13:28:30;10.07;;;5.20;;
42338;SDS011;27993;45.392;10.918;2023-03-24T13:31:15;9.55;;;5.85;;
42338;SDS011;27993;45.392;10.918;2023-03-24T13:33:49;8.75;;;6.53;;
42338;SDS011;27993;45.392;10.918;2023-03-24T13:39:03;9.55;;;6.47;;
42338;SDS011;27993;45.392;10.918;2023-03-24T13:41:41;7.72;;;6.55;;
42338;SDS011;27993;45.392;10.918;2023-03-24T13:44:20;9.13;;;5.85;;
42338;SDS011;27993;45.392;10.918;2023-03-24T13:46:59;9.30;;;5.57;;
42338;SDS011;27993;45.392;10.918;2023-03-24T13:49:35;7.93;;;6.18;;
42338;SDS011;27993;45.392;10.918;2023-03-24T13:52:20;8.73;;;6.15;;
42338;SDS011;27993;45.392;10.918;2023-03-24T13:54:56;9.43;;;5.65;;
42338;SDS011;27993;45.392;10.918;2023-03-24T13:57:29;11.65;;;5.60;;
42338;SDS011;27993;45.392;10.918;2023-03-24T14:00:03;7.20;;;6.43;;
42338;SDS011;27993;45.392;10.918;2023-03-24T14:02:51;9.75;;;6.07;;
42338;SDS011;27993;45.392;10.918;2023-03-24T14:06:03;9.80;;;6.72;;
42338;SDS011;27993;45.392;10.918;2023-03-24T14:08:55;9.00;;;6.50;;
42338;SDS011;27993;45.392;10.918;2023-03-24T14:14:15;8.40;;;7.37;;
42338;SDS011;27993;45.392;10.918;2023-03-24T14:19:37;10.52;;;6.20;;
42338;SDS011;27993;45.392;10.918;2023-03-24T14:22:34;11.95;;;7.20;;
42338;SDS011;27993;45.392;10.918;2023-03-24T14:27:44;9.85;;;6.68;;
42338;SDS011;27993;45.392;10.918;2023-03-24T14:30:24;10.10;;;6.70;;
42338;SDS011;27993;45.392;10.918;2023-03-24T14:32:57;6.85;;;5.68;;
42338;SDS011;27993;45.392;10.918;2023-03-24T14:35:32;9.88;;;6.18;;
42338;SDS011;27993;45.392;10.918;2023-03-24T14:40:49;7.10;;;5.82;;
42338;SDS011;27993;45.392;10.918;2023-03-24T14:43:26;12.30;;;5.72;;
42338;SDS011;27993;45.392;10.918;2023-03-24T14:46:02;9.90;;;6.40;;
42338;SDS011;27993;45.392;10.918;2023-03-24T14:54:43;11.50;;;5.82;;
42338;SDS011;27993;45.392;10.918;2023-03-24T15:02:52;10.57;;;5.97;;
42338;SDS011;27993;45.392;10.918;2023-03-24T15:05:29;10.43;;;5.80;;
42338;SDS011;27993;45.392;10.918;2023-03-24T15:08:14;13.05;;;5.50;;
42338;SDS011;27993;45.392;10.918;2023-03-24T15:10:53;7.03;;;5.55;;
42338;SDS011;27993;45.392;10.918;2023-03-24T15:23:52;7.07;;;5.22;;
42338;SDS011;27993;45.392;10.918;2023-03-24T15:26:26;9.70;;;5.55;;
42338;SDS011;27993;45.392;10.918;2023-03-24T15:29:03;13.05;;;5.03;;
42338;SDS011;27993;45.392;10.918;2023-03-24T15:31:35;9.95;;;5.93;;
42338;SDS011;27993;45.392;10.918;2023-03-24T15:34:21;7.87;;;5.60;;
42338;SDS011;27993;45.392;10.918;2023-03-24T15:37:01;7.93;;;5.82;;
42338;SDS011;27993;45.392;10.918;2023-03-24T15:39:35;14.63;;;5.82;;
42338;SDS011;27993;45.392;10.918;2023-03-24T15:42:07;16.67;;;6.50;;
42338;SDS011;27993;45.392;10.918;2023-03-24T15:44:44;13.23;;;4.72;;
42338;SDS011;27993;45.392;10.918;2023-03-24T15:47:26;8.77;;;4.75;;
42338;SDS011;27993;45.392;10.918;2023-03-24T15:49:59;14.10;;;4.75;;
42338;SDS011;27993;45.392;10.918;2023-03-24T15:52:33;7.40;;;4.40;;
42338;SDS011;27993;45.392;10.918;2023-03-24T15:55:08;7.85;;;4.97;;
42338;SDS011;27993;45.392;10.918;2023-03-24T15:57:43;6.28;;;5.35;;
42338;SDS011;27993;45.392;10.918;2023-03-24T16:00:17;8.73;;;5.15;;
42338;SDS011;27993;45.392;10.918;2023-03-24T16:02:53;6.03;;;4.62;;
42338;SDS011;27993;45.392;10.918;2023-03-24T16:05:30;7.37;;;4.47;;
42338;SDS011;27993;45.392;10.918;2023-03-24T16:08:03;8.48;;;4.70;;
42338;SDS011;27993;45.392;10.918;2023-03-24T16:10:36;9.85;;;5.37;;
42338;SDS011;27993;45.392;10.918;2023-03-24T16:13:17;7.93;;;6.35;;
42338;SDS011;27993;45.392;10.918;2023-03-24T16:15:57;12.13;;;5.65;;
42338;SDS011;27993;45.392;10.918;2023-03-24T16:18:31;14.70;;;5.53;;
42338;SDS011;27993;45.392;10.918;2023-03-24T16:26:16;19.80;;;6.00;;
42338;SDS011;27993;45.392;10.918;2023-03-24T16:28:52;7.30;;;5.60;;
42338;SDS011;27993;45.392;10.918;2023-03-24T16:31:28;11.60;;;5.40;;
42338;SDS011;27993;45.392;10.918;2023-03-24T16:34:00;10.65;;;5.15;;
42338;SDS011;27993;45.392;10.918;2023-03-24T16:36:31;8.73;;;5.00;;
42338;SDS011;27993;45.392;10.918;2023-03-24T16:39:02;13.48;;;6.00;;
42338;SDS011;27993;45.392;10.918;2023-03-24T16:41:38;9.63;;;5.35;;
42338;SDS011;27993;45.392;10.918;2023-03-24T16:44:09;7.25;;;5.35;;
42338;SDS011;27993;45.392;10.918;2023-03-24T16:46:40;7.85;;;5.90;;
42338;SDS011;27993;45.392;10.918;2023-03-24T16:49:14;9.50;;;4.95;;
42338;SDS011;27993;45.392;10.918;2023-03-24T16:51:46;11.15;;;5.05;;
42338;SDS011;27993;45.392;10.918;2023-03-24T16:54:17;18.90;;;5.43;;
42338;SDS011;27993;45.392;10.918;2023-03-24T16:56:49;8.43;;;5.18;;
42338;SDS011;27993;45.392;10.918;2023-03-24T16:59:19;11.55;;;4.65;;
42338;SDS011;27993;45.392;10.918;2023-03-24T17:01:50;9.23;;;5.40;;
42338;SDS011;27993;45.392;10.918;2023-03-24T17:04:21;7.15;;;4.45;;
42338;SDS011;27993;45.392;10.918;2023-03-24T17:06:54;9.45;;;4.35;;
42338;SDS011;27993;45.392;10.918;2023-03-24T17:09:25;10.40;;;5.03;;
42338;SDS011;27993;45.392;10.918;2023-03-24T17:11:57;8.82;;;4.22;;
42338;SDS011;27993;45.392;10.918;2023-03-24T17:14:31;10.13;;;4.85;;
42338;SDS011;27993;45.392;10.918;2023-03-24T17:17:05;7.47;;;5.35;;
42338;SDS011;27993;45.392;10.918;2023-03-24T17:19:40;21.33;;;5.07;;
42338;SDS011;27993;45.392;10.918;2023-03-24T17:22:12;11.98;;;4.30;;
42338;SDS011;27993;45.392;10.918;2023-03-24T17:24:47;13.50;;;5.18;;
42338;SDS011;27993;45.392;10.918;2023-03-24T17:27:18;8.95;;;5.20;;
42338;SDS011;27993;45.392;10.918;2023-03-24T17:29:50;14.20;;;4.40;;
42338;SDS011;27993;45.392;10.918;2023-03-24T17:32:25;18.00;;;4.85;;
42338;SDS011;27993;45.392;10.918;2023-03-24T17:35:01;13.85;;;5.05;;
42338;SDS011;27993;45.392;10.918;2023-03-24T17:37:32;9.05;;;4.65;;
42338;SDS011;27993;45.392;10.918;2023-03-24T17:40:06;6.30;;;4.70;;
42338;SDS011;27993;45.392;10.918;2023-03-24T17:42:40;13.10;;;5.32;;
42338;SDS011;27993;45.392;10.918;2023-03-24T17:45:16;10.50;;;6.03;;
42338;SDS011;27993;45.392;10.918;2023-03-24T17:47:47;13.88;;;6.72;;
42338;SDS011;27993;45.392;10.918;2023-03-24T17:50:18;14.73;;;5.20;;
42338;SDS011;27993;45.392;10.918;2023-03-24T17:52:52;10.98;;;5.60;;
42338;SDS011;27993;45.392;10.918;2023-03-24T17:55:23;8.38;;;5.43;;
42338;SDS011;27993;45.392;10.918;2023-03-24T17:57:53;15.30;;;5.72;;
42338;SDS011;27993;45.392;10.918;2023-03-24T18:00:24;10.27;;;5.65;;
42338;SDS011;27993;45.392;10.918;2023-03-24T18:02:55;9.30;;;5.87;;
42338;SDS011;27993;45.392;10.918;2023-03-24T18:05:25;10.75;;;5.15;;
42338;SDS011;27993;45.392;10.918;2023-03-24T18:07:56;12.32;;;5.65;;
42338;SDS011;27993;45.392;10.918;2023-03-24T18:10:27;11.30;;;5.45;;
42338;SDS011;27993;45.392;10.918;2023-03-24T18:12:59;15.45;;;5.25;;
42338;SDS011;27993;45.392;10.918;2023-03-24T18:15:30;12.48;;;4.97;;
42338;SDS011;27993;45.392;10.918;2023-03-24T18:20:32;7.50;;;4.13;;
42338;SDS011;27993;45.392;10.918;2023-03-24T18:23:03;8.32;;;4.15;;
42338;SDS011;27993;45.392;10.918;2023-03-24T18:25:34;7.07;;;3.80;;